sensor_id;sensor_type;location;lat;lon;timestamp;pressure;altitude;pressure_sealevel;temperature;humidity
31092;BME280;67728;53.122;12.776;2023-12-22T00:00:49;97487.22;;;5.10;57.79
31092;BME280;67728;53.122;12.776;2023-12-22T00:02:21;97479.50;;;5.10;56.74
31092;BME280;67728;53.122;12.776;2023-12-22T00:03:53;97525.03;;;5.07;57.16
31092;BME280;67728;53.122;12.776;2023-12-22T00:05:24;97494.91;;;5.10;57.41
31092;BME280;67728;53.122;12.776;2023-12-22T00:06:57;97492.00;;;5.18;55.53
31092;BME280;67728;53.122;12.776;2023-12-22T00:08:28;97525.59;;;5.13;55.95
31092;BME280;67728;53.122;12.776;2023-12-22T00:09:59;97515.66;;;5.06;56.69
31092;BME280;67728;53.122;12.776;2023-12-22T00:11:30;97502.03;;;5.04;56.97
31092;BME280;67728;53.122;12.776;2023-12-22T00:13:02;97502.13;;;5.02;57.52
31092;BME280;67728;53.122;12.776;2023-12-22T00:14:32;97532.78;;;4.87;59.22
31092;BME280;67728;53.122;12.776;2023-12-22T00:16:04;97512.19;;;5.07;56.19
31092;BME280;67728;53.122;12.776;2023-12-22T00:17:35;97519.63;;;4.94;58.41
31092;BME280;67728;53.122;12.776;2023-12-22T00:19:07;97519.25;;;4.83;59.77
31092;BME280;67728;53.122;12.776;2023-12-22T00:20:37;97527.38;;;4.93;58.15
31092;BME280;67728;53.122;12.776;2023-12-22T00:22:10;97530.66;;;4.96;57.19
31092;BME280;67728;53.122;12.776;2023-12-22T00:23:41;97514.47;;;4.94;57.30
31092;BME280;67728;53.122;12.776;2023-12-22T00:25:13;97526.75;;;4.88;58.50
31092;BME280;67728;53.122;12.776;2023-12-22T00:26:43;97523.69;;;4.98;57.80
31092;BME280;67728;53.122;12.776;2023-12-22T00:28:16;97490.03;;;5.04;56.78
31092;BME280;67728;53.122;12.776;2023-12-22T00:29:46;97533.44;;;5.10;56.37
31092;BME280;67728;53.122;12.776;2023-12-22T00:31:18;97539.88;;;5.00;57.98
31092;BME280;67728;53.122;12.776;2023-12-22T00:32:48;97543.09;;;5.05;56.68
31092;BME280;67728;53.122;12.776;2023-12-22T00:34:21;97550.44;;;5.13;55.10
31092;BME280;67728;53.122;12.776;2023-12-22T00:35:52;97538.94;;;5.03;57.49
31092;BME280;67728;53.122;12.776;2023-12-22T00:37:25;97562.19;;;5.18;55.23
31092;BME280;67728;53.122;12.776;2023-12-22T00:38:57;97544.09;;;5.01;57.60
31092;BME280;67728;53.122;12.776;2023-12-22T00:40:27;97576.03;;;4.96;57.90
31092;BME280;67728;53.122;12.776;2023-12-22T00:41:59;97545.97;;;4.98;57.75
31092;BME280;67728;53.122;12.776;2023-12-22T00:43:31;97569.28;;;4.93;58.17
31092;BME280;67728;53.122;12.776;2023-12-22T00:45:02;97578.97;;;5.07;55.60
31092;BME280;67728;53.122;12.776;2023-12-22T00:46:34;97575.69;;;5.03;56.06
31092;BME280;67728;53.122;12.776;2023-12-22T00:48:05;97575.81;;;5.00;56.13
31092;BME280;67728;53.122;12.776;2023-12-22T00:49:36;97568.44;;;5.13;54.25
31092;BME280;67728;53.122;12.776;2023-12-22T00:51:07;97582.84;;;4.97;56.86
31092;BME280;67728;53.122;12.776;2023-12-22T00:52:40;97587.66;;;5.04;55.22
31092;BME280;67728;53.122;12.776;2023-12-22T00:54:10;97595.06;;;4.92;57.38
31092;BME280;67728;53.122;12.776;2023-12-22T00:55:42;97579.72;;;5.09;54.57
31092;BME280;67728;53.122;12.776;2023-12-22T00:57:13;97596.88;;;5.08;54.74
31092;BME280;67728;53.122;12.776;2023-12-22T00:58:44;97595.13;;;5.09;54.97
31092;BME280;67728;53.122;12.776;2023-12-22T01:00:15;97599.91;;;4.98;55.95
31092;BME280;67728;53.122;12.776;2023-12-22T01:01:47;97594.75;;;4.98;55.47
31092;BME280;67728;53.122;12.776;2023-12-22T01:03:18;97590.69;;;4.94;55.39
31092;BME280;67728;53.122;12.776;2023-12-22T01:04:49;97598.38;;;4.94;56.11
31092;BME280;67728;53.122;12.776;2023-12-22T01:06:21;97619.44;;;5.02;54.70
31092;BME280;67728;53.122;12.776;2023-12-22T01:07:53;97590.22;;;5.04;55.08
31092;BME280;67728;53.122;12.776;2023-12-22T01:09:25;97618.00;;;5.15;53.78
31092;BME280;67728;53.122;12.776;2023-12-22T01:10:55;97595.22;;;5.07;55.47
31092;BME280;67728;53.122;12.776;2023-12-22T01:12:27;97599.00;;;4.99;56.32
31092;BME280;67728;53.122;12.776;2023-12-22T01:13:58;97605.38;;;4.90;56.93
31092;BME280;67728;53.122;12.776;2023-12-22T01:15:29;97604.03;;;5.02;55.55
31092;BME280;67728;53.122;12.776;2023-12-22T01:17:00;97602.56;;;4.96;56.58
31092;BME280;67728;53.122;12.776;2023-12-22T01:18:32;97614.63;;;4.94;56.92
31092;BME280;67728;53.122;12.776;2023-12-22T01:20:04;97628.75;;;5.04;54.91
31092;BME280;67728;53.122;12.776;2023-12-22T01:21:35;97612.19;;;4.91;57.13
31092;BME280;67728;53.122;12.776;2023-12-22T01:23:08;97624.63;;;4.80;57.22
31092;BME280;67728;53.122;12.776;2023-12-22T01:24:38;97607.00;;;4.72;57.63
31092;BME280;67728;53.122;12.776;2023-12-22T01:26:13;97612.78;;;4.77;58.45
31092;BME280;67728;53.122;12.776;2023-12-22T01:27:44;97641.25;;;4.71;58.22
31092;BME280;67728;53.122;12.776;2023-12-22T01:29:16;97613.78;;;4.73;58.22
31092;BME280;67728;53.122;12.776;2023-12-22T01:30:47;97618.09;;;4.73;58.81
31092;BME280;67728;53.122;12.776;2023-12-22T01:32:18;97616.66;;;4.66;58.89
31092;BME280;67728;53.122;12.776;2023-12-22T01:33:49;97630.59;;;4.60;59.35
31092;BME280;67728;53.122;12.776;2023-12-22T01:35:21;97629.59;;;4.64;57.89
31092;BME280;67728;53.122;12.776;2023-12-22T01:36:52;97650.56;;;4.54;59.27
31092;BME280;67728;53.122;12.776;2023-12-22T01:38:25;97637.59;;;4.57;59.20
31092;BME280;67728;53.122;12.776;2023-12-22T01:39:56;97641.56;;;4.64;57.85
31092;BME280;67728;53.122;12.776;2023-12-22T01:41:28;97637.66;;;4.55;59.70
31092;BME280;67728;53.122;12.776;2023-12-22T01:43:00;97653.75;;;4.59;59.07
31092;BME280;67728;53.122;12.776;2023-12-22T01:44:32;97649.00;;;4.50;60.05
31092;BME280;67728;53.122;12.776;2023-12-22T01:46:03;97650.47;;;4.55;59.38
31092;BME280;67728;53.122;12.776;2023-12-22T01:47:35;97664.16;;;4.56;58.67
31092;BME280;67728;53.122;12.776;2023-12-22T01:49:07;97670.56;;;4.46;60.31
31092;BME280;67728;53.122;12.776;2023-12-22T01:50:39;97654.47;;;4.41;60.20
31092;BME280;67728;53.122;12.776;2023-12-22T01:52:10;97665.97;;;4.32;60.71
31092;BME280;67728;53.122;12.776;2023-12-22T01:53:44;97669.59;;;4.27;61.98
31092;BME280;67728;53.122;12.776;2023-12-22T01:55:16;97664.47;;;4.48;59.35
31092;BME280;67728;53.122;12.776;2023-12-22T01:56:49;97671.97;;;4.31;61.87
31092;BME280;67728;53.122;12.776;2023-12-22T01:58:20;97666.75;;;4.34;60.92
31092;BME280;67728;53.122;12.776;2023-12-22T01:59:52;97658.44;;;4.28;60.79
31092;BME280;67728;53.122;12.776;2023-12-22T02:01:23;97667.19;;;4.22;61.84
31092;BME280;67728;53.122;12.776;2023-12-22T02:02:55;97662.88;;;4.24;61.16
31092;BME280;67728;53.122;12.776;2023-12-22T02:04:26;97661.19;;;4.23;60.16
31092;BME280;67728;53.122;12.776;2023-12-22T02:05:58;97670.72;;;4.19;61.57
31092;BME280;67728;53.122;12.776;2023-12-22T02:07:29;97662.59;;;4.08;62.63
31092;BME280;67728;53.122;12.776;2023-12-22T02:09:02;97654.50;;;4.19;60.85
31092;BME280;67728;53.122;12.776;2023-12-22T02:10:34;97655.34;;;4.19;61.26
31092;BME280;67728;53.122;12.776;2023-12-22T02:12:06;97653.56;;;4.21;60.76
31092;BME280;67728;53.122;12.776;2023-12-22T02:13:38;97656.38;;;4.15;62.20
31092;BME280;67728;53.122;12.776;2023-12-22T02:15:09;97667.56;;;4.13;62.19
31092;BME280;67728;53.122;12.776;2023-12-22T02:16:45;97653.50;;;4.01;63.22
31092;BME280;67728;53.122;12.776;2023-12-22T02:18:21;97664.47;;;4.05;63.46
31092;BME280;67728;53.122;12.776;2023-12-22T02:19:53;97659.94;;;4.11;61.97
31092;BME280;67728;53.122;12.776;2023-12-22T02:21:26;97649.50;;;3.94;63.80
31092;BME280;67728;53.122;12.776;2023-12-22T02:22:59;97660.16;;;3.84;64.40
31092;BME280;67728;53.122;12.776;2023-12-22T02:24:30;97655.69;;;3.89;63.90
31092;BME280;67728;53.122;12.776;2023-12-22T02:26:06;97658.41;;;3.84;64.63
31092;BME280;67728;53.122;12.776;2023-12-22T02:27:45;97655.97;;;3.81;66.18
31092;BME280;67728;53.122;12.776;2023-12-22T02:29:17;97653.78;;;3.71;67.96
31092;BME280;67728;53.122;12.776;2023-12-22T02:30:53;97657.31;;;3.68;69.13
31092;BME280;67728;53.122;12.776;2023-12-22T02:32:29;97662.72;;;3.60;71.81
31092;BME280;67728;53.122;12.776;2023-12-22T02:34:04;97668.06;;;3.54;73.99
31092;BME280;67728;53.122;12.776;2023-12-22T02:35:39;97645.91;;;3.53;75.87
31092;BME280;67728;53.122;12.776;2023-12-22T02:37:12;97654.03;;;3.41;77.49
31092;BME280;67728;53.122;12.776;2023-12-22T02:38:47;97661.81;;;3.38;78.46
31092;BME280;67728;53.122;12.776;2023-12-22T02:40:19;97664.66;;;3.31;80.29
31092;BME280;67728;53.122;12.776;2023-12-22T02:41:51;97652.06;;;3.25;81.36
31092;BME280;67728;53.122;12.776;2023-12-22T02:43:22;97661.53;;;3.23;82.27
31092;BME280;67728;53.122;12.776;2023-12-22T02:44:54;97661.63;;;3.20;83.03
31092;BME280;67728;53.122;12.776;2023-12-22T02:46:24;97664.97;;;3.22;84.07
31092;BME280;67728;53.122;12.776;2023-12-22T02:47:56;97663.44;;;3.18;84.25
31092;BME280;67728;53.122;12.776;2023-12-22T02:49:27;97656.78;;;3.12;85.17
31092;BME280;67728;53.122;12.776;2023-12-22T02:50:58;97650.94;;;3.09;85.99
31092;BME280;67728;53.122;12.776;2023-12-22T02:52:30;97656.97;;;3.08;86.54
31092;BME280;67728;53.122;12.776;2023-12-22T02:54:03;97655.47;;;3.00;87.54
31092;BME280;67728;53.122;12.776;2023-12-22T02:55:35;97659.78;;;3.00;88.53
31092;BME280;67728;53.122;12.776;2023-12-22T02:57:06;97646.19;;;2.98;88.53
31092;BME280;67728;53.122;12.776;2023-12-22T02:58:38;97656.66;;;2.92;89.13
31092;BME280;67728;53.122;12.776;2023-12-22T03:00:10;97652.22;;;2.97;89.15
31092;BME280;67728;53.122;12.776;2023-12-22T03:01:41;97655.72;;;2.94;89.30
31092;BME280;67728;53.122;12.776;2023-12-22T03:03:13;97651.31;;;2.98;89.31
31092;BME280;67728;53.122;12.776;2023-12-22T03:04:43;97648.03;;;2.94;89.27
31092;BME280;67728;53.122;12.776;2023-12-22T03:06:16;97650.63;;;2.93;88.91
31092;BME280;67728;53.122;12.776;2023-12-22T03:07:47;97649.88;;;2.89;90.32
31092;BME280;67728;53.122;12.776;2023-12-22T03:09:20;97654.34;;;2.84;90.64
31092;BME280;67728;53.122;12.776;2023-12-22T03:10:52;97646.75;;;2.81;90.40
31092;BME280;67728;53.122;12.776;2023-12-22T03:12:23;97632.22;;;2.83;90.43
31092;BME280;67728;53.122;12.776;2023-12-22T03:13:54;97636.41;;;2.84;90.24
31092;BME280;67728;53.122;12.776;2023-12-22T03:15:25;97632.22;;;2.83;90.94
31092;BME280;67728;53.122;12.776;2023-12-22T03:16:56;97633.09;;;2.82;91.08
31092;BME280;67728;53.122;12.776;2023-12-22T03:18:28;97632.09;;;2.86;90.98
31092;BME280;67728;53.122;12.776;2023-12-22T03:19:59;97628.50;;;2.92;90.98
31092;BME280;67728;53.122;12.776;2023-12-22T03:21:30;97631.78;;;2.95;91.35
31092;BME280;67728;53.122;12.776;2023-12-22T03:23:01;97645.47;;;2.94;91.60
31092;BME280;67728;53.122;12.776;2023-12-22T03:24:34;97637.78;;;2.94;91.77
31092;BME280;67728;53.122;12.776;2023-12-22T03:26:05;97648.13;;;2.91;92.08
31092;BME280;67728;53.122;12.776;2023-12-22T03:27:37;97642.09;;;2.92;91.70
31092;BME280;67728;53.122;12.776;2023-12-22T03:29:08;97630.13;;;2.94;91.86
31092;BME280;67728;53.122;12.776;2023-12-22T03:30:40;97630.78;;;2.99;90.98
31092;BME280;67728;53.122;12.776;2023-12-22T03:32:10;97640.34;;;2.94;91.79
31092;BME280;67728;53.122;12.776;2023-12-22T03:33:42;97636.75;;;3.00;91.06
31092;BME280;67728;53.122;12.776;2023-12-22T03:35:12;97636.97;;;2.94;91.90
31092;BME280;67728;53.122;12.776;2023-12-22T03:36:44;97641.16;;;2.95;92.11
31092;BME280;67728;53.122;12.776;2023-12-22T03:38:18;97645.47;;;2.94;92.73
31092;BME280;67728;53.122;12.776;2023-12-22T03:39:51;97629.31;;;2.92;92.52
31092;BME280;67728;53.122;12.776;2023-12-22T03:41:23;97634.53;;;2.89;93.12
31092;BME280;67728;53.122;12.776;2023-12-22T03:42:53;97623.31;;;2.93;93.25
31092;BME280;67728;53.122;12.776;2023-12-22T03:44:25;97631.78;;;2.95;92.99
31092;BME280;67728;53.122;12.776;2023-12-22T03:45:56;97637.72;;;2.96;92.92
31092;BME280;67728;53.122;12.776;2023-12-22T03:47:27;97634.44;;;2.92;93.33
31092;BME280;67728;53.122;12.776;2023-12-22T03:48:58;97620.94;;;2.89;93.61
31092;BME280;67728;53.122;12.776;2023-12-22T03:50:29;97632.78;;;2.91;93.52
31092;BME280;67728;53.122;12.776;2023-12-22T03:52:00;97627.75;;;2.88;93.51
31092;BME280;67728;53.122;12.776;2023-12-22T03:53:32;97621.97;;;2.83;93.92
31092;BME280;67728;53.122;12.776;2023-12-22T03:55:04;97625.97;;;2.90;93.74
31092;BME280;67728;53.122;12.776;2023-12-22T03:56:36;97627.44;;;2.97;93.39
31092;BME280;67728;53.122;12.776;2023-12-22T03:58:07;97633.50;;;2.95;94.04
31092;BME280;67728;53.122;12.776;2023-12-22T03:59:38;97628.25;;;2.98;94.19
31092;BME280;67728;53.122;12.776;2023-12-22T04:01:13;97632.53;;;2.97;94.33
31092;BME280;67728;53.122;12.776;2023-12-22T04:02:45;97653.16;;;2.94;94.84
31092;BME280;67728;53.122;12.776;2023-12-22T04:04:16;97635.09;;;2.97;94.74
31092;BME280;67728;53.122;12.776;2023-12-22T04:05:48;97631.56;;;3.01;94.66
31092;BME280;67728;53.122;12.776;2023-12-22T04:07:18;97623.88;;;3.01;94.25
31092;BME280;67728;53.122;12.776;2023-12-22T04:08:50;97632.44;;;3.00;94.88
31092;BME280;67728;53.122;12.776;2023-12-22T04:10:22;97638.47;;;2.99;94.79
31092;BME280;67728;53.122;12.776;2023-12-22T04:11:53;97628.22;;;2.99;95.29
31092;BME280;67728;53.122;12.776;2023-12-22T04:13:24;97644.47;;;2.98;95.44
31092;BME280;67728;53.122;12.776;2023-12-22T04:14:55;97644.56;;;2.95;95.60
31092;BME280;67728;53.122;12.776;2023-12-22T04:16:26;97646.28;;;2.95;95.79
31092;BME280;67728;53.122;12.776;2023-12-22T04:17:58;97629.31;;;2.92;95.63
31092;BME280;67728;53.122;12.776;2023-12-22T04:19:28;97625.97;;;2.90;96.13
31092;BME280;67728;53.122;12.776;2023-12-22T04:21:00;97624.25;;;2.91;95.67
31092;BME280;67728;53.122;12.776;2023-12-22T04:22:30;97624.25;;;2.91;95.79
31092;BME280;67728;53.122;12.776;2023-12-22T04:24:02;97641.31;;;2.92;95.60
31092;BME280;67728;53.122;12.776;2023-12-22T04:25:34;97634.44;;;2.92;95.06
31092;BME280;67728;53.122;12.776;2023-12-22T04:27:06;97625.09;;;2.91;94.83
31092;BME280;67728;53.122;12.776;2023-12-22T04:28:37;97613.19;;;2.90;95.19
31092;BME280;67728;53.122;12.776;2023-12-22T04:30:09;97626.75;;;2.92;94.57
31092;BME280;67728;53.122;12.776;2023-12-22T04:31:40;97629.09;;;2.98;93.20
31092;BME280;67728;53.122;12.776;2023-12-22T04:33:11;97629.97;;;2.97;93.60
31092;BME280;67728;53.122;12.776;2023-12-22T04:34:42;97618.09;;;2.96;93.64
31092;BME280;67728;53.122;12.776;2023-12-22T04:36:13;97614.63;;;2.97;93.32
31092;BME280;67728;53.122;12.776;2023-12-22T04:37:45;97619.81;;;2.96;92.65
31092;BME280;67728;53.122;12.776;2023-12-22T04:39:16;97614.63;;;2.97;93.16
31092;BME280;67728;53.122;12.776;2023-12-22T04:40:49;97616.41;;;2.95;92.97
31092;BME280;67728;53.122;12.776;2023-12-22T04:42:19;97625.81;;;2.95;93.26
31092;BME280;67728;53.122;12.776;2023-12-22T04:43:51;97622.31;;;2.97;92.43
31092;BME280;67728;53.122;12.776;2023-12-22T04:45:22;97631.56;;;3.01;91.70
31092;BME280;67728;53.122;12.776;2023-12-22T04:46:53;97631.56;;;3.01;91.64
31092;BME280;67728;53.122;12.776;2023-12-22T04:48:24;97639.25;;;3.01;91.38
31092;BME280;67728;53.122;12.776;2023-12-22T04:49:55;97628.25;;;2.98;91.73
31092;BME280;67728;53.122;12.776;2023-12-22T04:51:26;97623.31;;;2.93;92.00
31092;BME280;67728;53.122;12.776;2023-12-22T04:52:58;97619.25;;;2.88;92.09
31092;BME280;67728;53.122;12.776;2023-12-22T04:54:28;97623.59;;;2.86;92.49
31092;BME280;67728;53.122;12.776;2023-12-22T04:56:01;97626.91;;;2.88;92.39
31092;BME280;67728;53.122;12.776;2023-12-22T04:57:33;97622.75;;;2.85;92.12
31092;BME280;67728;53.122;12.776;2023-12-22T04:59:04;97639.88;;;2.83;92.52
31092;BME280;67728;53.122;12.776;2023-12-22T05:00:35;97637.16;;;2.88;91.89
31092;BME280;67728;53.122;12.776;2023-12-22T05:02:06;97648.22;;;2.88;91.92
31092;BME280;67728;53.122;12.776;2023-12-22T05:03:37;97644.06;;;2.86;91.84
31092;BME280;67728;53.122;12.776;2023-12-22T05:05:09;97645.78;;;2.85;91.70
31092;BME280;67728;53.122;12.776;2023-12-22T05:06:42;97634.97;;;2.77;92.58
31092;BME280;67728;53.122;12.776;2023-12-22T05:08:12;97648.44;;;2.82;91.53
31092;BME280;67728;53.122;12.776;2023-12-22T05:09:45;97641.50;;;2.86;91.46
31092;BME280;67728;53.122;12.776;2023-12-22T05:11:17;97645.03;;;2.82;91.50
31092;BME280;67728;53.122;12.776;2023-12-22T05:12:48;97650.13;;;2.83;91.63
31092;BME280;67728;53.122;12.776;2023-12-22T05:14:20;97654.44;;;2.81;91.39
31092;BME280;67728;53.122;12.776;2023-12-22T05:15:51;97652.69;;;2.83;91.66
31092;BME280;67728;53.122;12.776;2023-12-22T05:17:22;97643.22;;;2.85;91.67
31092;BME280;67728;53.122;12.776;2023-12-22T05:18:53;97652.00;;;2.78;91.58
31092;BME280;67728;53.122;12.776;2023-12-22T05:20:24;97638.47;;;2.75;91.54
31092;BME280;67728;53.122;12.776;2023-12-22T05:21:55;97630.94;;;2.70;92.16
31092;BME280;67728;53.122;12.776;2023-12-22T05:23:27;97638.63;;;2.70;91.76
31092;BME280;67728;53.122;12.776;2023-12-22T05:24:58;97638.56;;;2.72;91.53
31092;BME280;67728;53.122;12.776;2023-12-22T05:26:31;97636.75;;;2.75;91.34
31092;BME280;67728;53.122;12.776;2023-12-22T05:28:02;97618.94;;;2.72;92.03
31092;BME280;67728;53.122;12.776;2023-12-22T05:29:34;97632.56;;;2.73;92.26
31092;BME280;67728;53.122;12.776;2023-12-22T05:31:04;97629.16;;;2.72;92.11
31092;BME280;67728;53.122;12.776;2023-12-22T05:32:36;97640.75;;;2.82;90.85
31092;BME280;67728;53.122;12.776;2023-12-22T05:34:07;97627.19;;;2.80;91.38
31092;BME280;67728;53.122;12.776;2023-12-22T05:35:40;97638.88;;;2.87;90.52
31092;BME280;67728;53.122;12.776;2023-12-22T05:37:11;97650.03;;;2.86;90.27
31092;BME280;67728;53.122;12.776;2023-12-22T05:38:43;97658.56;;;2.85;90.74
31092;BME280;67728;53.122;12.776;2023-12-22T05:40:13;97656.22;;;2.79;91.00
31092;BME280;67728;53.122;12.776;2023-12-22T05:41:46;97650.47;;;2.73;92.43
31092;BME280;67728;53.122;12.776;2023-12-22T05:43:18;97649.94;;;2.63;93.26
31092;BME280;67728;53.122;12.776;2023-12-22T05:44:50;97644.13;;;2.58;93.75
31092;BME280;67728;53.122;12.776;2023-12-22T05:46:21;97635.69;;;2.56;95.22
31092;BME280;67728;53.122;12.776;2023-12-22T05:47:52;97632.47;;;2.50;95.78
31092;BME280;67728;53.122;12.776;2023-12-22T05:49:24;97623.19;;;2.47;96.92
31092;BME280;67728;53.122;12.776;2023-12-22T05:50:56;97644.53;;;2.46;96.98
31092;BME280;67728;53.122;12.776;2023-12-22T05:52:27;97640.41;;;2.42;97.95
31092;BME280;67728;53.122;12.776;2023-12-22T05:53:58;97641.44;;;2.36;99.30
31092;BME280;67728;53.122;12.776;2023-12-22T05:55:29;97643.31;;;2.31;99.64
31092;BME280;67728;53.122;12.776;2023-12-22T05:57:02;97638.28;;;2.28;100.00
31092;BME280;67728;53.122;12.776;2023-12-22T05:58:35;97632.50;;;2.23;100.00
31092;BME280;67728;53.122;12.776;2023-12-22T06:00:06;97621.50;;;2.20;100.00
31092;BME280;67728;53.122;12.776;2023-12-22T06:01:40;97624.25;;;2.14;100.00
31092;BME280;67728;53.122;12.776;2023-12-22T06:03:11;97619.97;;;2.14;100.00
31092;BME280;67728;53.122;12.776;2023-12-22T06:04:42;97617.41;;;2.16;100.00
31092;BME280;67728;53.122;12.776;2023-12-22T06:06:14;97630.38;;;2.36;99.53
31092;BME280;67728;53.122;12.776;2023-12-22T06:07:44;97650.03;;;2.34;100.00
31092;BME280;67728;53.122;12.776;2023-12-22T06:09:16;97642.28;;;2.37;100.00
31092;BME280;67728;53.122;12.776;2023-12-22T06:10:48;97660.69;;;2.48;98.85
31092;BME280;67728;53.122;12.776;2023-12-22T06:12:21;97658.06;;;2.50;98.71
31092;BME280;67728;53.122;12.776;2023-12-22T06:13:52;97657.28;;;2.48;99.35
31092;BME280;67728;53.122;12.776;2023-12-22T06:15:23;97653.88;;;2.47;99.03
31092;BME280;67728;53.122;12.776;2023-12-22T06:16:54;97660.97;;;2.39;99.60
31092;BME280;67728;53.122;12.776;2023-12-22T06:18:28;97656.03;;;2.33;100.00
31092;BME280;67728;53.122;12.776;2023-12-22T06:19:59;97683.78;;;2.19;99.99
31092;BME280;67728;53.122;12.776;2023-12-22T06:21:31;97660.53;;;1.99;100.00
31092;BME280;67728;53.122;12.776;2023-12-22T06:23:01;97684.09;;;1.79;100.00
31092;BME280;67728;53.122;12.776;2023-12-22T06:24:34;97677.13;;;1.56;100.00
31092;BME280;67728;53.122;12.776;2023-12-22T06:26:08;97666.63;;;1.36;100.00
31092;BME280;67728;53.122;12.776;2023-12-22T06:27:41;97665.06;;;1.31;100.00
31092;BME280;67728;53.122;12.776;2023-12-22T06:29:12;97664.31;;;1.27;100.00
31092;BME280;67728;53.122;12.776;2023-12-22T06:30:44;97671.25;;;1.22;100.00
31092;BME280;67728;53.122;12.776;2023-12-22T06:32:17;97701.94;;;1.20;100.00
31092;BME280;67728;53.122;12.776;2023-12-22T06:33:50;97691.75;;;1.19;100.00
31092;BME280;67728;53.122;12.776;2023-12-22T06:35:21;97681.59;;;1.17;100.00
31092;BME280;67728;53.122;12.776;2023-12-22T06:36:55;97678.06;;;1.23;100.00
31092;BME280;67728;53.122;12.776;2023-12-22T06:38:26;97659.19;;;1.27;100.00
31092;BME280;67728;53.122;12.776;2023-12-22T06:39:58;97662.59;;;1.28;100.00
31092;BME280;67728;53.122;12.776;2023-12-22T06:41:29;97661.72;;;1.29;100.00
31092;BME280;67728;53.122;12.776;2023-12-22T06:43:04;97669.31;;;1.32;100.00
31092;BME280;67728;53.122;12.776;2023-12-22T06:44:35;97659.63;;;1.43;100.00
31092;BME280;67728;53.122;12.776;2023-12-22T06:46:14;97667.72;;;1.57;100.00
31092;BME280;67728;53.122;12.776;2023-12-22T06:47:46;97671.25;;;1.53;100.00
31092;BME280;67728;53.122;12.776;2023-12-22T06:49:17;97681.41;;;1.54;100.00
31092;BME280;67728;53.122;12.776;2023-12-22T06:50:48;97658.19;;;1.63;100.00
31092;BME280;67728;53.122;12.776;2023-12-22T06:52:19;97655.63;;;1.63;100.00
31092;BME280;67728;53.122;12.776;2023-12-22T06:53:50;97664.97;;;1.64;100.00
31092;BME280;67728;53.122;12.776;2023-12-22T06:55:22;97661.44;;;1.68;100.00
31092;BME280;67728;53.122;12.776;2023-12-22T06:56:53;97662.09;;;1.75;100.00
31092;BME280;67728;53.122;12.776;2023-12-22T06:58:26;97673.34;;;1.69;100.00
31092;BME280;67728;53.122;12.776;2023-12-22T06:59:56;97661.34;;;1.71;100.00
31092;BME280;67728;53.122;12.776;2023-12-22T07:01:29;97668.13;;;1.72;100.00
31092;BME280;67728;53.122;12.776;2023-12-22T07:03:00;97654.69;;;1.66;100.00
31092;BME280;67728;53.122;12.776;2023-12-22T07:04:31;97667.22;;;1.75;100.00
31092;BME280;67728;53.122;12.776;2023-12-22T07:06:03;97658.72;;;1.74;100.00
31092;BME280;67728;53.122;12.776;2023-12-22T07:07:34;97678.28;;;1.75;100.00
31092;BME280;67728;53.122;12.776;2023-12-22T07:09:33;97677.13;;;1.84;100.00
31092;BME280;67728;53.122;12.776;2023-12-22T07:11:04;97685.81;;;1.78;100.00
31092;BME280;67728;53.122;12.776;2023-12-22T07:12:35;97690.13;;;1.78;100.00
31092;BME280;67728;53.122;12.776;2023-12-22T07:14:08;97698.66;;;1.77;100.00
31092;BME280;67728;53.122;12.776;2023-12-22T07:15:38;97690.16;;;1.76;100.00
31092;BME280;67728;53.122;12.776;2023-12-22T07:17:10;97688.53;;;1.74;100.00
31092;BME280;67728;53.122;12.776;2023-12-22T07:18:42;97693.38;;;1.83;99.87
31092;BME280;67728;53.122;12.776;2023-12-22T07:20:13;97702.59;;;1.87;99.28
31092;BME280;67728;53.122;12.776;2023-12-22T07:21:44;97704.13;;;1.94;97.95
31092;BME280;67728;53.122;12.776;2023-12-22T07:23:16;97715.28;;;1.92;98.22
31092;BME280;67728;53.122;12.776;2023-12-22T07:24:47;97723.56;;;1.98;97.63
31092;BME280;67728;53.122;12.776;2023-12-22T07:26:19;97730.31;;;2.01;97.54
31092;BME280;67728;53.122;12.776;2023-12-22T07:27:52;97731.94;;;2.03;97.57
31092;BME280;67728;53.122;12.776;2023-12-22T07:29:24;97719.22;;;2.02;97.50
31092;BME280;67728;53.122;12.776;2023-12-22T07:30:55;97729.38;;;2.03;97.27
31092;BME280;67728;53.122;12.776;2023-12-22T07:32:27;97731.75;;;2.11;96.05
31092;BME280;67728;53.122;12.776;2023-12-22T07:33:58;97714.06;;;2.03;97.51
31092;BME280;67728;53.122;12.776;2023-12-22T07:35:29;97720.44;;;2.18;94.29
31092;BME280;67728;53.122;12.776;2023-12-22T07:37:00;97727.31;;;2.16;95.13
31092;BME280;67728;53.122;12.776;2023-12-22T07:38:31;97745.31;;;2.13;95.31
31092;BME280;67728;53.122;12.776;2023-12-22T07:40:02;97730.50;;;2.24;93.00
31092;BME280;67728;53.122;12.776;2023-12-22T07:41:34;97733.16;;;2.19;94.63
31092;BME280;67728;53.122;12.776;2023-12-22T07:43:05;97730.41;;;2.27;92.13
31092;BME280;67728;53.122;12.776;2023-12-22T07:44:38;97733.97;;;2.21;92.65
31092;BME280;67728;53.122;12.776;2023-12-22T07:46:17;97731.78;;;2.37;88.79
31092;BME280;67728;53.122;12.776;2023-12-22T07:47:50;97756.28;;;2.44;89.17
31092;BME280;67728;53.122;12.776;2023-12-22T07:49:20;97761.72;;;2.33;90.47
31092;BME280;67728;53.122;12.776;2023-12-22T07:50:52;97764.66;;;2.49;88.40
31092;BME280;67728;53.122;12.776;2023-12-22T07:52:24;97764.19;;;2.36;89.64
31092;BME280;67728;53.122;12.776;2023-12-22T07:53:54;97770.94;;;2.39;88.96
31092;BME280;67728;53.122;12.776;2023-12-22T07:55:26;97762.16;;;2.48;88.04
31092;BME280;67728;53.122;12.776;2023-12-22T07:56:57;97768.09;;;2.48;86.75
31092;BME280;67728;53.122;12.776;2023-12-22T07:58:29;97780.56;;;2.59;86.13
31092;BME280;67728;53.122;12.776;2023-12-22T08:00:01;97766.19;;;2.55;86.89
31092;BME280;67728;53.122;12.776;2023-12-22T08:01:33;97779.28;;;2.46;86.85
31092;BME280;67728;53.122;12.776;2023-12-22T08:03:04;97783.56;;;2.43;87.29
31092;BME280;67728;53.122;12.776;2023-12-22T08:04:36;97771.91;;;2.63;84.78